Terminal Aerodrome Forecast
Issued by NWS Atlanta, GA

Current Version | Previous Version | Text Only | Print | Product List | Glossary On
Versions: 1 2 3 4 5 6 7 8 9 10 11 12 13 14 15 16 17 18 19 20
000
FTUS42 KFFC 020500 RRA
TAFCSG
TAF
KCSG 020543Z 0206/0306 00000KT P6SM SCT150 SCT250
     FM021400 VRB03KT P6SM SCT030 SCT150
     FM021800 28004KT P6SM BKN045 PROB30 0219/0223 VRB15G30KT 5SM
      TSRA BKN040CB
     FM030200 00000KT P6SM SCT050 BKN120=

USA.gov is the U.S. government's official web portal to all federal, state and local government web resources and services.